Time;durP1;ratioP1;P1;durP2;ratioP2;P2;SDS_P1;SDS_P2;PMS_P1;PMS_P2;Temp;Humidity;BMP_temperature;BMP_pressure;BME280_temperature;BME280_humidity;BME280_pressure;Samples;Min_cycle;Max_cycle;Signal;HPM_P1;HPM_P2
2024/01/20 00:01:33;;;;;;;36.50;21.60;;;0.80;99.90;;;;;;4968778;28;20042;-79
2024/01/20 00:03:59;;;;;;;33.28;20.92;;;0.70;99.90;;;;;;4970873;28;20022;-73
2024/01/20 00:06:25;;;;;;;33.47;20.13;;;0.70;99.90;;;;;;4969795;28;20467;-75
2024/01/20 00:08:51;;;;;;;35.88;21.90;;;0.70;99.90;;;;;;4966027;28;20018;-74
2024/01/20 00:11:17;;;;;;;34.85;20.67;;;0.70;99.90;;;;;;4973449;28;20027;-73
2024/01/20 00:13:43;;;;;;;34.78;21.30;;;0.70;99.90;;;;;;4972995;28;20432;-73
2024/01/20 00:16:09;;;;;;;29.88;19.02;;;0.70;99.90;;;;;;4973125;28;20031;-73
2024/01/20 00:18:35;;;;;;;33.28;19.75;;;0.70;99.90;;;;;;4946463;28;20015;-75
2024/01/20 00:21:00;;;;;;;33.83;19.63;;;0.70;99.90;;;;;;4968664;28;20434;-81
2024/01/20 00:23:26;;;;;;;35.75;20.30;;;0.70;99.90;;;;;;4955748;28;20089;-81
2024/01/20 00:25:52;;;;;;;31.73;20.20;;;0.70;99.90;;;;;;4973155;28;20540;-80
2024/01/20 00:28:18;;;;;;;31.60;19.85;;;0.60;99.90;;;;;;4973305;28;20078;-79
2024/01/20 00:30:44;;;;;;;28.58;18.08;;;0.60;99.90;;;;;;4973092;28;20035;-73
2024/01/20 00:33:10;;;;;;;34.47;18.92;;;0.70;99.90;;;;;;4946127;29;20023;-79
2024/01/20 00:35:36;;;;;;;33.85;19.95;;;0.60;99.90;;;;;;4964253;28;20033;-79
2024/01/20 00:38:03;;;;;;;32.60;19.73;;;0.60;99.90;;;;;;4973081;28;20110;-73
2024/01/20 00:40:29;;;;;;;28.92;18.75;;;0.60;99.90;;;;;;4960496;28;20423;-79
2024/01/20 00:42:55;;;;;;;31.75;17.65;;;0.50;99.90;;;;;;4970897;28;20034;-75
2024/01/20 00:45:21;;;;;;;26.30;17.75;;;0.60;99.90;;;;;;4972676;28;20035;-74
2024/01/20 00:47:47;;;;;;;30.92;18.33;;;0.60;99.90;;;;;;4954811;28;20031;-74
2024/01/20 00:50:13;;;;;;;29.33;18.50;;;0.60;99.90;;;;;;4972864;28;20034;-74
2024/01/20 00:52:45;;;;;;;28.55;17.30;;;0.60;99.90;;;;;;4971643;28;20049;-77
2024/01/20 00:55:11;;;;;;;30.48;18.98;;;0.60;99.90;;;;;;4934902;29;20039;-75
2024/01/20 00:57:37;;;;;;;28.05;17.25;;;0.60;99.90;;;;;;4967310;28;20069;-73
2024/01/20 01:00:10;;;;;;;31.90;18.88;;;0.50;99.90;;;;;;4968674;28;20467;-76
2024/01/20 01:02:40;;;;;;;30.50;18.33;;;0.50;99.90;;;;;;4946914;28;20039;-77
2024/01/20 01:05:06;;;;;;;32.28;19.58;;;0.50;99.90;;;;;;4972841;28;20037;-76
2024/01/20 01:07:37;;;;;;;29.48;17.70;;;0.50;99.90;;;;;;4962868;28;20482;-74
2024/01/20 01:10:05;;;;;;;32.70;19.77;;;0.50;99.90;;;;;;4972911;28;20822;-72
2024/01/20 01:12:30;;;;;;;30.70;19.65;;;0.50;99.90;;;;;;4973030;28;20034;-75
2024/01/20 01:14:56;;;;;;;33.13;18.98;;;0.50;99.90;;;;;;4976088;28;20039;-74
2024/01/20 01:17:27;;;;;;;29.80;17.55;;;0.50;99.90;;;;;;4976595;28;20022;-73
2024/01/20 01:19:55;;;;;;;;;;;0.50;99.90;;;;;;4960125;28;20043;-74
2024/01/20 01:22:31;;;;;;;29.75;17.65;;;0.50;99.90;;;;;;4973764;28;20010;-73
2024/01/20 01:25:02;;;;;;;26.35;16.55;;;0.50;99.90;;;;;;4935139;28;20027;-73
2024/01/20 01:27:31;;;;;;;31.23;17.92;;;0.50;99.90;;;;;;4936565;29;20109;-73
2024/01/20 01:29:56;;;;;;;27.25;18.05;;;0.50;99.90;;;;;;4956812;28;20479;-74
2024/01/20 01:32:27;;;;;;;30.67;18.70;;;0.50;99.90;;;;;;4957583;28;20035;-72
2024/01/20 01:34:55;;;;;;;30.33;17.33;;;0.50;99.90;;;;;;4956980;28;20027;-73
2024/01/20 01:37:26;;;;;;;32.80;18.50;;;0.50;99.90;;;;;;4975052;28;20382;-73
2024/01/20 01:40:02;;;;;;;29.20;18.05;;;0.50;99.90;;;;;;4955588;28;20058;-73
2024/01/20 01:42:28;;;;;;;30.50;17.45;;;0.50;99.90;;;;;;4969341;28;20110;-73
2024/01/20 01:44:54;;;;;;;27.27;16.60;;;0.50;99.90;;;;;;4959049;28;20487;-75
2024/01/20 01:47:20;;;;;;;28.70;18.05;;;0.50;99.90;;;;;;4975663;28;20039;-74
2024/01/20 01:49:46;;;;;;;28.60;16.08;;;0.50;99.90;;;;;;4976220;28;20040;-73
2024/01/20 01:52:14;;;;;;;26.77;16.15;;;0.50;99.90;;;;;;4976037;28;20049;-74
2024/01/20 01:54:40;;;;;;;31.27;17.25;;;0.50;99.90;;;;;;4975820;28;20054;-73
2024/01/20 01:57:08;;;;;;;25.73;16.77;;;0.50;99.90;;;;;;4975858;28;20359;-79
2024/01/20 01:59:34;;;;;;;30.02;18.88;;;0.50;99.90;;;;;;4975463;28;20545;-73
2024/01/20 02:02:00;;;;;;;32.90;18.65;;;0.50;99.90;;;;;;4975072;28;20031;-73
2024/01/20 02:04:26;;;;;;;31.60;18.35;;;0.50;99.90;;;;;;4974797;28;20389;-74
2024/01/20 02:06:52;;;;;;;30.23;17.77;;;0.40;99.90;;;;;;4954327;28;20493;-75
2024/01/20 02:09:19;;;;;;;28.48;18.45;;;0.40;99.90;;;;;;4970978;28;20045;-75
2024/01/20 02:11:46;;;;;;;32.95;19.00;;;0.40;99.90;;;;;;4958681;28;20038;-75
2024/01/20 02:14:12;;;;;;;28.10;16.90;;;0.40;99.90;;;;;;4941034;28;20497;-74
2024/01/20 02:16:38;;;;;;;28.15;17.48;;;0.40;99.90;;;;;;4975570;28;20035;-75
2024/01/20 02:19:05;;;;;;;32.83;17.23;;;0.40;99.90;;;;;;4975128;28;20150;-75
2024/01/20 02:21:32;;;;;;;28.27;16.70;;;0.40;99.90;;;;;;4958119;28;20035;-74
2024/01/20 02:23:59;;;;;;;25.95;15.82;;;0.40;99.90;;;;;;4974514;28;20049;-76
2024/01/20 02:26:28;;;;;;;29.25;19.45;;;0.40;99.90;;;;;;4969864;28;20031;-76
2024/01/20 02:28:54;;;;;;;28.70;16.45;;;0.40;99.90;;;;;;4975420;28;20077;-74
2024/01/20 02:31:19;;;;;;;29.63;18.65;;;0.40;99.90;;;;;;4975229;28;20383;-76
2024/01/20 02:33:45;;;;;;;29.95;17.52;;;0.40;99.90;;;;;;4972084;28;20479;-75
2024/01/20 02:36:11;;;;;;;31.10;17.17;;;0.50;99.90;;;;;;4957532;28;20560;-74
2024/01/20 02:38:37;;;;;;;30.23;16.92;;;0.40;99.90;;;;;;4975225;28;20037;-75
2024/01/20 02:41:03;;;;;;;27.55;16.08;;;0.50;99.90;;;;;;4974780;28;20082;-74
2024/01/20 02:43:29;;;;;;;23.65;15.68;;;0.40;99.90;;;;;;4975040;28;20053;-74
2024/01/20 02:45:55;;;;;;;29.13;16.77;;;0.40;99.90;;;;;;4975192;28;20038;-74
2024/01/20 02:48:21;;;;;;;26.02;16.20;;;0.40;99.90;;;;;;4974534;28;20037;-75
2024/01/20 02:50:47;;;;;;;24.70;16.35;;;0.40;99.90;;;;;;4974972;28;20033;-74
2024/01/20 02:53:13;;;;;;;27.88;16.50;;;0.40;99.90;;;;;;4975038;28;20030;-76
2024/01/20 02:55:39;;;;;;;22.85;14.68;;;0.30;99.90;;;;;;4974747;28;20054;-77
2024/01/20 02:58:05;;;;;;;28.88;14.30;;;0.30;99.90;;;;;;4974411;28;20435;-77
2024/01/20 03:00:31;;;;;;;26.48;14.57;;;0.30;99.90;;;;;;4974828;28;20042;-75
2024/01/20 03:02:56;;;;;;;25.15;14.52;;;0.30;99.90;;;;;;4974532;28;20025;-74
2024/01/20 03:05:22;;;;;;;24.27;14.20;;;0.30;99.90;;;;;;4964884;28;20113;-77
2024/01/20 03:07:48;;;;;;;25.98;13.57;;;0.30;99.90;;;;;;4971213;28;20026;-75
2024/01/20 03:10:14;;;;;;;22.77;14.75;;;0.30;99.90;;;;;;4974661;28;20022;-78
2024/01/20 03:12:40;;;;;;;29.13;16.63;;;0.30;99.90;;;;;;4956903;28;20034;-78
2024/01/20 03:15:07;;;;;;;26.20;15.50;;;0.30;99.90;;;;;;4974901;28;20023;-75
2024/01/20 03:17:33;;;;;;;29.85;19.25;;;0.20;99.90;;;;;;4974214;28;20027;-75
2024/01/20 03:19:59;;;;;;;26.05;16.33;;;0.20;99.90;;;;;;4973783;28;20093;-75
2024/01/20 03:22:25;;;;;;;25.58;15.25;;;0.20;99.90;;;;;;4974313;28;20077;-75
2024/01/20 03:24:51;;;;;;;28.92;16.85;;;0.30;99.90;;;;;;4974249;28;20434;-76
2024/01/20 03:27:20;;;;;;;27.52;16.00;;;0.20;99.90;;;;;;4973921;28;20019;-75
2024/01/20 03:29:46;;;;;;;28.17;16.58;;;0.30;99.90;;;;;;4956499;28;20125;-74
2024/01/20 03:32:12;;;;;;;27.58;16.98;;;0.20;99.90;;;;;;4957184;28;20090;-76
2024/01/20 03:34:38;;;;;;;31.05;17.05;;;0.20;99.90;;;;;;4973825;28;20027;-75
2024/01/20 03:37:05;;;;;;;30.25;18.33;;;0.20;99.90;;;;;;4973331;28;20026;-74
2024/01/20 03:39:30;;;;;;;27.15;16.55;;;0.20;99.90;;;;;;4973829;28;20045;-80
2024/01/20 03:41:57;;;;;;;26.60;16.10;;;0.10;99.90;;;;;;4973967;28;20374;-75
2024/01/20 03:44:22;;;;;;;30.23;16.45;;;0.10;99.90;;;;;;4973804;28;20034;-77
2024/01/20 03:46:48;;;;;;;26.00;15.20;;;0.20;99.90;;;;;;4973707;28;20027;-74
2024/01/20 03:49:14;;;;;;;27.58;16.50;;;0.10;99.90;;;;;;4973927;28;20031;-78
2024/01/20 03:51:40;;;;;;;26.10;15.30;;;0.10;99.90;;;;;;4973532;28;20031;-74
2024/01/20 03:54:06;;;;;;;28.42;15.40;;;0.10;99.90;;;;;;4973469;28;20122;-76
2024/01/20 03:56:32;;;;;;;24.20;15.30;;;0.10;99.90;;;;;;4973336;28;20018;-75
2024/01/20 03:58:58;;;;;;;30.70;17.38;;;0.10;99.90;;;;;;4973849;28;20030;-73
2024/01/20 04:01:24;;;;;;;25.63;15.13;;;0.10;99.90;;;;;;4973166;28;20126;-76
2024/01/20 04:03:51;;;;;;;26.05;15.57;;;0.10;99.90;;;;;;4973868;28;20102;-77
2024/01/20 04:06:17;;;;;;;26.80;15.07;;;0.10;99.90;;;;;;4973446;28;20394;-75
2024/01/20 04:08:42;;;;;;;27.10;15.77;;;0.10;99.90;;;;;;4973720;28;20035;-78
2024/01/20 04:11:08;;;;;;;26.00;14.65;;;0.10;99.90;;;;;;4973277;28;20066;-77
2024/01/20 04:13:34;;;;;;;25.98;14.95;;;0.10;99.90;;;;;;4973248;28;20034;-74
2024/01/20 04:16:00;;;;;;;27.58;16.02;;;0.10;99.90;;;;;;4973598;28;20038;-76
2024/01/20 04:18:26;;;;;;;29.25;16.30;;;0.10;99.90;;;;;;4973109;28;20446;-75
2024/01/20 04:20:52;;;;;;;27.75;14.70;;;0.10;99.90;;;;;;4955072;28;20407;-74
2024/01/20 04:23:17;;;;;;;26.02;15.50;;;0.10;99.90;;;;;;4973128;28;20391;-75
2024/01/20 04:25:43;;;;;;;30.13;15.93;;;0.00;99.90;;;;;;4970761;28;20463;-76
2024/01/20 04:28:09;;;;;;;26.33;16.17;;;0.10;99.90;;;;;;4955041;28;20042;-73
2024/01/20 04:30:35;;;;;;;26.83;16.20;;;0.00;99.90;;;;;;4972145;28;20109;-78
2024/01/20 04:33:06;;;;;;;25.63;14.55;;;0.00;99.90;;;;;;4972839;28;20142;-74
2024/01/20 04:35:34;;;;;;;;;;;0.00;99.90;;;;;;4973103;28;20042;-74
2024/01/20 04:38:05;;;;;;;27.60;16.00;;;0.00;99.90;;;;;;4973496;28;19914;-74
2024/01/20 04:40:36;;;;;;;25.27;14.32;;;0.00;99.90;;;;;;4923807;29;20190;-74
2024/01/20 04:43:02;;;;;;;29.20;16.27;;;0.00;99.90;;;;;;4970290;28;20105;-75
2024/01/20 04:45:28;;;;;;;26.85;15.63;;;0.00;99.90;;;;;;4972840;28;20108;-75
2024/01/20 04:47:54;;;;;;;23.98;14.55;;;0.00;99.90;;;;;;4972674;28;20476;-75
2024/01/20 04:50:20;;;;;;;26.30;15.75;;;-0.10;99.90;;;;;;4972214;28;20089;-76
2024/01/20 04:52:46;;;;;;;26.85;15.13;;;0.00;99.90;;;;;;4972918;28;20037;-75
2024/01/20 04:55:12;;;;;;;29.60;15.32;;;-0.10;99.90;;;;;;4972650;28;20047;-75
2024/01/20 04:57:37;;;;;;;27.88;15.70;;;-0.10;99.90;;;;;;4972745;28;20505;-77
2024/01/20 05:00:04;;;;;;;30.30;17.85;;;-0.10;99.90;;;;;;4972631;28;20039;-75
2024/01/20 05:02:30;;;;;;;29.85;17.40;;;-0.10;99.90;;;;;;4972434;28;20177;-75
2024/01/20 05:04:56;;;;;;;27.85;16.63;;;-0.10;99.90;;;;;;4955383;28;20039;-77
2024/01/20 05:07:22;;;;;;;28.90;17.52;;;-0.20;99.90;;;;;;4972759;28;20109;-75
2024/01/20 05:09:48;;;;;;;32.47;17.73;;;-0.10;99.90;;;;;;4972793;28;20121;-76
2024/01/20 05:12:14;;;;;;;31.13;15.93;;;-0.10;99.90;;;;;;4954698;28;20447;-77
2024/01/20 05:14:40;;;;;;;29.85;16.45;;;-0.10;99.90;;;;;;4972584;28;20117;-77
2024/01/20 05:17:06;;;;;;;26.38;15.48;;;-0.10;99.90;;;;;;4972367;28;20023;-79
2024/01/20 05:19:32;;;;;;;31.90;16.70;;;-0.20;99.90;;;;;;4972391;28;20069;-74
2024/01/20 05:21:58;;;;;;;28.65;17.05;;;-0.20;99.90;;;;;;4972521;28;20066;-76
2024/01/20 05:24:24;;;;;;;28.00;17.38;;;-0.20;99.90;;;;;;4954903;28;20410;-76
2024/01/20 05:26:49;;;;;;;28.27;16.08;;;-0.30;99.90;;;;;;4955076;28;20502;-75
2024/01/20 05:29:15;;;;;;;26.38;14.75;;;-0.20;99.90;;;;;;4963146;28;20031;-76
2024/01/20 05:31:41;;;;;;;28.95;15.88;;;-0.20;99.90;;;;;;4972522;28;20769;-75
2024/01/20 05:34:07;;;;;;;26.17;15.73;;;-0.20;99.90;;;;;;4954316;28;20495;-74
2024/01/20 05:36:33;;;;;;;25.48;14.88;;;-0.20;99.90;;;;;;4972610;28;20058;-74
2024/01/20 05:38:59;;;;;;;24.77;14.13;;;-0.30;99.90;;;;;;4960145;28;20015;-74
2024/01/20 05:41:25;;;;;;;24.70;14.43;;;-0.30;99.90;;;;;;4955241;28;20050;-73
2024/01/20 05:43:51;;;;;;;22.80;14.05;;;-0.30;99.90;;;;;;4971945;28;20019;-74
2024/01/20 05:46:19;;;;;;;26.70;15.95;;;-0.30;99.90;;;;;;4972156;28;20030;-76
2024/01/20 05:48:45;;;;;;;23.50;15.00;;;-0.40;99.90;;;;;;4971952;28;20174;-76
2024/01/20 05:51:11;;;;;;;26.23;15.60;;;-0.40;99.90;;;;;;4971181;28;20106;-74
2024/01/20 05:53:37;;;;;;;26.98;15.43;;;-0.30;99.90;;;;;;4972123;28;20042;-74
2024/01/20 05:56:03;;;;;;;29.58;16.20;;;-0.40;99.90;;;;;;4970633;28;20491;-74
2024/01/20 05:58:29;;;;;;;29.20;16.88;;;-0.40;99.90;;;;;;4972729;28;20070;-74
2024/01/20 06:00:55;;;;;;;26.35;15.18;;;-0.40;99.90;;;;;;4944782;28;20141;-75
2024/01/20 06:03:22;;;;;;;28.02;16.25;;;-0.40;99.90;;;;;;4976305;28;20034;-74
2024/01/20 06:05:48;;;;;;;28.27;16.52;;;-0.40;99.90;;;;;;4975633;28;20023;-73
2024/01/20 06:08:14;;;;;;;26.13;15.27;;;-0.50;99.90;;;;;;4975967;28;20027;-73
2024/01/20 06:10:40;;;;;;;26.83;16.77;;;-0.40;99.90;;;;;;4975024;28;20471;-75
2024/01/20 06:13:06;;;;;;;25.38;15.05;;;-0.40;99.90;;;;;;4975976;28;20018;-78
2024/01/20 06:15:32;;;;;;;31.15;15.65;;;-0.50;99.90;;;;;;4957738;28;20038;-73
2024/01/20 06:17:58;;;;;;;24.33;13.02;;;-0.50;99.90;;;;;;4957917;28;20023;-74
2024/01/20 06:20:23;;;;;;;25.65;16.25;;;-0.50;99.90;;;;;;4973920;28;20118;-77
2024/01/20 06:22:49;;;;;;;21.90;14.07;;;-0.50;99.90;;;;;;4974442;28;20538;-74
2024/01/20 06:25:15;;;;;;;23.58;13.57;;;-0.50;99.90;;;;;;4975082;28;20055;-73
2024/01/20 06:27:41;;;;;;;25.25;14.57;;;-0.50;99.90;;;;;;4975238;28;20033;-74
2024/01/20 06:30:07;;;;;;;25.83;16.50;;;-0.50;99.90;;;;;;4975253;28;20126;-74
2024/01/20 06:32:33;;;;;;;28.00;16.95;;;-0.60;99.90;;;;;;4970625;28;20398;-73
2024/01/20 06:34:59;;;;;;;27.52;14.80;;;-0.50;99.90;;;;;;4973579;28;20034;-76
2024/01/20 06:37:25;;;;;;;25.33;15.90;;;-0.60;99.90;;;;;;4975218;28;20093;-75
2024/01/20 06:39:51;;;;;;;25.25;15.32;;;-0.60;99.90;;;;;;4973221;28;20039;-76
2024/01/20 06:42:17;;;;;;;26.85;16.23;;;-0.60;99.90;;;;;;4938645;29;20139;-75
2024/01/20 06:44:42;;;;;;;27.60;16.13;;;-0.60;99.90;;;;;;4957748;28;20506;-73
2024/01/20 06:47:08;;;;;;;33.38;17.15;;;-0.60;99.90;;;;;;4940736;28;20035;-73
2024/01/20 06:49:40;;;;;;;28.35;18.30;;;-0.70;99.90;;;;;;4974881;28;20190;-74
2024/01/20 06:52:06;;;;;;;24.13;15.02;;;-0.70;99.90;;;;;;4963184;28;20490;-75
2024/01/20 06:54:43;;;;;;;28.15;15.93;;;-0.70;99.90;;;;;;4974422;28;20050;-73
2024/01/20 06:57:29;;;;;;;29.38;16.55;;;-0.70;99.90;;;;;;4942152;28;20031;-74
2024/01/20 07:03:24;;;;;;;27.48;14.93;;;-0.70;99.90;;;;;;4895852;29;20485;-75
2024/01/20 07:06:03;;;;;;;27.73;15.98;;;-0.70;99.90;;;;;;4880566;29;20084;-75
2024/01/20 07:08:36;;;;;;;31.27;18.02;;;-0.80;99.90;;;;;;4884795;29;20456;-74
2024/01/20 07:11:21;;;;;;;31.48;18.98;;;-0.80;99.90;;;;;;4877067;29;20033;-75
2024/01/20 07:13:49;;;;;;;34.65;18.83;;;-0.80;99.90;;;;;;4877326;29;20043;-74
2024/01/20 07:16:20;;;;;;;34.67;19.38;;;-0.90;99.90;;;;;;4856830;29;20194;-73
2024/01/20 07:18:49;;;;;;;34.88;20.13;;;-0.90;99.90;;;;;;4841108;29;20037;-74
2024/01/20 07:21:20;;;;;;;35.53;21.42;;;-1.00;99.90;;;;;;4858288;29;20167;-76
2024/01/20 07:23:48;;;;;;;36.00;19.92;;;-0.90;99.90;;;;;;4864813;29;20052;-76
2024/01/20 07:26:15;;;;;;;35.13;21.95;;;-1.00;99.90;;;;;;4879479;29;20124;-78
2024/01/20 07:28:54;;;;;;;;;;;;;;;;;;;;;
2024/01/20 07:31:33;;;;;;;41.05;22.33;;;-1.00;99.90;;;;;;4879616;29;20066;-73
2024/01/20 07:33:59;;;;;;;31.88;20.67;;;-1.00;99.90;;;;;;4895251;29;20032;-74
2024/01/20 07:36:25;;;;;;;32.63;20.38;;;-1.00;99.90;;;;;;4920032;29;20067;-73
2024/01/20 07:38:51;;;;;;;37.22;22.33;;;-1.00;99.90;;;;;;4933450;29;20084;-73
2024/01/20 07:41:18;;;;;;;33.63;21.77;;;-1.10;99.90;;;;;;4933640;29;20062;-74
2024/01/20 07:43:44;;;;;;;37.83;21.42;;;-1.10;99.90;;;;;;4933365;29;20031;-76
2024/01/20 07:46:12;;;;;;;36.90;22.55;;;-1.10;99.90;;;;;;4921917;28;20036;-73
2024/01/20 07:48:40;;;;;;;39.08;24.98;;;-1.10;99.90;;;;;;4940216;28;20037;-73
2024/01/20 07:51:07;;;;;;;41.00;26.25;;;-1.10;99.90;;;;;;4973612;28;20031;-76
2024/01/20 07:53:33;;;;;;;43.17;25.25;;;-1.10;99.90;;;;;;4973176;28;20019;-73
2024/01/20 07:55:59;;;;;;;37.72;22.33;;;-1.00;99.90;;;;;;4940127;28;20046;-73
2024/01/20 07:58:25;;;;;;;34.22;19.45;;;-1.00;99.90;;;;;;4973882;28;20035;-76
2024/01/20 08:00:51;;;;;;;32.05;19.23;;;-0.90;99.90;;;;;;4972273;28;20537;-74
2024/01/20 08:03:17;;;;;;;34.53;21.35;;;-0.80;99.90;;;;;;4973938;28;20023;-75
2024/01/20 08:05:45;;;;;;;35.38;21.15;;;-0.70;99.90;;;;;;4973019;28;20403;-74
2024/01/20 08:08:11;;;;;;;36.83;21.35;;;-0.60;99.90;;;;;;4973495;28;20030;-79
2024/01/20 08:10:37;;;;;;;40.42;22.75;;;-0.30;99.90;;;;;;4973629;28;20498;-78
2024/01/20 08:13:03;;;;;;;45.50;24.42;;;-0.20;99.90;;;;;;4955848;28;20030;-72
2024/01/20 08:15:29;;;;;;;49.13;23.58;;;-0.10;99.90;;;;;;4973835;28;20543;-75
2024/01/20 08:17:54;;;;;;;39.17;21.17;;;0.00;99.90;;;;;;4973613;28;20037;-75
2024/01/20 08:20:20;;;;;;;32.75;20.20;;;0.20;99.90;;;;;;4973297;28;20064;-77
2024/01/20 08:22:46;;;;;;;33.58;19.38;;;0.30;99.90;;;;;;4972855;28;20489;-75
2024/01/20 08:25:13;;;;;;;34.20;20.25;;;0.30;99.90;;;;;;4973485;28;20553;-73
2024/01/20 08:27:39;;;;;;;30.08;18.73;;;0.40;99.90;;;;;;4973368;28;20026;-72
2024/01/20 08:30:05;;;;;;;33.03;18.98;;;0.40;99.90;;;;;;4972883;28;20394;-75
2024/01/20 08:32:31;;;;;;;31.35;18.67;;;0.40;99.90;;;;;;4973096;28;20470;-74
2024/01/20 08:34:57;;;;;;;32.63;19.50;;;0.60;99.90;;;;;;4973113;28;20038;-74
2024/01/20 08:37:23;;;;;;;25.83;15.35;;;0.60;99.90;;;;;;4973000;28;20038;-74
2024/01/20 08:39:49;;;;;;;27.17;16.55;;;0.50;99.90;;;;;;4935687;29;20045;-76
2024/01/20 08:42:15;;;;;;;30.45;17.85;;;0.50;99.90;;;;;;4970935;28;20041;-74
2024/01/20 08:44:41;;;;;;;25.98;15.02;;;0.60;99.90;;;;;;4972715;28;20035;-75
2024/01/20 08:47:07;;;;;;;25.15;13.98;;;0.60;99.90;;;;;;4972934;28;20026;-74
2024/01/20 08:49:33;;;;;;;27.10;13.20;;;0.90;99.90;;;;;;4972390;28;20030;-73
2024/01/20 08:51:59;;;;;;;20.02;12.10;;;0.90;99.90;;;;;;4967717;28;20106;-76
2024/01/20 08:54:24;;;;;;;21.48;13.32;;;0.70;99.90;;;;;;4965484;28;20134;-71
2024/01/20 08:56:50;;;;;;;21.42;13.20;;;0.70;99.90;;;;;;4965644;28;20026;-73
2024/01/20 08:59:28;;;;;;;28.33;15.55;;;0.80;99.90;;;;;;4971988;28;20031;-75
2024/01/20 09:02:02;;;;;;;27.60;17.27;;;0.90;99.90;;;;;;4968559;28;20448;-73
2024/01/20 09:04:37;;;;;;;26.55;15.55;;;0.90;99.90;;;;;;4961753;28;20038;-72
2024/01/20 09:07:06;;;;;;;23.70;13.68;;;1.00;99.90;;;;;;4937117;28;20035;-74
2024/01/20 09:09:34;;;;;;;28.65;13.80;;;0.80;99.90;;;;;;4939882;28;20023;-75
2024/01/20 09:12:05;;;;;;;24.38;14.55;;;0.90;99.90;;;;;;4939683;28;20054;-73
2024/01/20 09:14:36;;;;;;;27.65;16.35;;;1.10;99.90;;;;;;4936669;28;20030;-73
2024/01/20 09:17:09;;;;;;;28.55;15.63;;;1.10;99.90;;;;;;4951665;23;20047;-74
2024/01/20 09:19:36;;;;;;;29.65;15.35;;;1.10;99.90;;;;;;4941843;28;20089;-75
2024/01/20 09:22:08;;;;;;;24.05;13.88;;;1.30;99.90;;;;;;4971340;28;20023;-78
2024/01/20 09:24:35;;;;;;;23.77;14.10;;;1.40;99.90;;;;;;4938689;28;20030;-73
2024/01/20 09:27:01;;;;;;;24.90;12.23;;;1.30;99.90;;;;;;4955301;28;20190;-74
2024/01/20 09:29:26;;;;;;;25.02;13.15;;;1.30;99.90;;;;;;4969604;28;20038;-76
2024/01/20 09:31:55;;;;;;;27.60;13.05;;;1.10;99.90;;;;;;4968366;28;20486;-74
2024/01/20 09:34:24;;;;;;;22.73;14.57;;;1.20;99.90;;;;;;4951584;28;20079;-76
2024/01/20 09:36:57;;;;;;;25.13;14.95;;;1.10;99.90;;;;;;4931710;29;20031;-74
2024/01/20 09:39:25;;;;;;;21.35;12.32;;;1.10;99.90;;;;;;4955536;28;20027;-74
2024/01/20 09:41:57;;;;;;;23.17;12.70;;;1.00;99.90;;;;;;4976039;28;20042;-74
2024/01/20 09:44:42;;;;;;;27.48;14.45;;;1.10;99.90;;;;;;4956632;28;20050;-74
2024/01/20 09:47:11;;;;;;;24.98;14.73;;;1.20;99.90;;;;;;4955572;29;20122;-79
2024/01/20 09:49:38;;;;;;;21.70;14.20;;;1.30;99.90;;;;;;4974525;28;20110;-74
2024/01/20 09:52:14;;;;;;;27.13;14.23;;;1.30;99.90;;;;;;4957003;29;20026;-74
2024/01/20 09:55:07;;;;;;;23.52;12.48;;;1.40;99.90;;;;;;4940648;28;20063;-75
2024/01/20 09:57:42;;;;;;;22.02;12.15;;;1.50;99.90;;;;;;4972326;28;20098;-73
2024/01/20 10:00:11;;;;;;;24.83;12.55;;;1.40;99.90;;;;;;4936412;28;20387;-75
2024/01/20 10:02:47;;;;;;;22.50;12.55;;;1.40;99.90;;;;;;4958409;28;20015;-74
2024/01/20 10:05:16;;;;;;;20.27;11.75;;;1.40;99.90;;;;;;4975478;28;20112;-74
2024/01/20 10:07:43;;;;;;;22.02;11.73;;;1.40;99.90;;;;;;4974779;28;20498;-74
2024/01/20 10:10:20;;;;;;;22.77;13.77;;;1.30;99.90;;;;;;4958383;28;20110;-75
2024/01/20 10:12:55;;;;;;;24.67;13.73;;;1.40;99.90;;;;;;4974598;28;20521;-74
2024/01/20 10:15:34;;;;;;;20.20;11.57;;;1.60;99.90;;;;;;4958377;28;20536;-74
2024/01/20 10:18:29;;;;;;;20.77;12.38;;;1.60;99.90;;;;;;4941617;28;20044;-75
2024/01/20 10:21:08;;;;;;;22.13;12.65;;;1.90;99.90;;;;;;4951441;29;20048;-75
2024/01/20 10:23:35;;;;;;;19.05;9.98;;;2.10;99.90;;;;;;4956448;29;20424;-73
2024/01/20 10:26:12;;;;;;;22.58;12.45;;;2.10;99.90;;;;;;4956482;29;20095;-75
2024/01/20 10:28:38;;;;;;;19.52;10.23;;;2.10;99.90;;;;;;4950094;23;20066;-73
2024/01/20 10:31:08;;;;;;;21.50;11.82;;;2.00;99.90;;;;;;4941660;28;20066;-73
2024/01/20 10:33:35;;;;;;;20.77;12.20;;;2.10;99.90;;;;;;4941314;28;20035;-75
2024/01/20 10:36:03;;;;;;;23.45;10.82;;;2.10;99.90;;;;;;4975481;28;20023;-74
2024/01/20 10:38:31;;;;;;;23.55;13.27;;;1.90;99.90;;;;;;4946883;28;20034;-75
2024/01/20 10:41:00;;;;;;;20.02;12.23;;;1.90;99.90;;;;;;4941490;28;20133;-75
2024/01/20 10:43:39;;;;;;;22.17;11.35;;;1.80;99.90;;;;;;4954540;28;20122;-73
2024/01/20 10:46:29;;;;;;;23.55;10.82;;;1.80;99.90;;;;;;4941749;28;20073;-73
2024/01/20 10:49:00;;;;;;;20.65;12.20;;;1.90;99.90;;;;;;4950908;23;20506;-74
2024/01/20 10:51:27;;;;;;;21.13;11.85;;;1.90;99.90;;;;;;4953101;29;20083;-74
2024/01/20 10:53:57;;;;;;;25.23;13.15;;;2.00;99.90;;;;;;4955687;29;20034;-72
2024/01/20 10:56:24;;;;;;;23.13;12.52;;;1.90;99.90;;;;;;4955797;29;20035;-80
2024/01/20 10:59:13;;;;;;;19.67;10.60;;;2.10;99.90;;;;;;4953273;29;20035;-75
2024/01/20 11:01:42;;;;;;;27.20;11.88;;;1.80;99.90;;;;;;4938325;29;20506;-75
2024/01/20 11:04:08;;;;;;;20.42;11.35;;;1.80;99.90;;;;;;4955613;29;20439;-73
2024/01/20 11:06:37;;;;;;;17.42;10.32;;;1.80;99.90;;;;;;4955570;29;20027;-73
2024/01/20 11:09:04;;;;;;;23.98;12.65;;;2.10;99.90;;;;;;4955090;29;20039;-72
2024/01/20 11:11:34;;;;;;;25.70;14.57;;;1.90;99.90;;;;;;4955170;29;20031;-72
2024/01/20 11:14:05;;;;;;;25.30;12.07;;;1.90;99.90;;;;;;4955407;29;20031;-74
2024/01/20 11:16:41;;;;;;;25.15;13.95;;;1.90;99.90;;;;;;4954962;29;20110;-72
2024/01/20 11:19:13;;;;;;;22.95;12.77;;;1.80;99.90;;;;;;4921190;29;20539;-74
2024/01/20 11:21:39;;;;;;;22.65;11.88;;;1.80;99.90;;;;;;4938076;29;20031;-79
2024/01/20 11:24:34;;;;;;;18.80;11.35;;;1.80;99.90;;;;;;4954611;29;20090;-72
2024/01/20 11:27:04;;;;;;;23.23;13.70;;;1.90;99.90;;;;;;4936999;29;20039;-73
2024/01/20 11:29:30;;;;;;;21.70;10.88;;;2.00;99.90;;;;;;4955407;29;20034;-73
2024/01/20 11:31:56;;;;;;;21.48;12.25;;;2.00;99.90;;;;;;4947501;29;20035;-79
2024/01/20 11:34:27;;;;;;;20.83;11.88;;;1.90;99.90;;;;;;4955118;29;20039;-75
2024/01/20 11:37:00;;;;;;;21.27;11.57;;;2.00;99.90;;;;;;4936727;29;20065;-75
2024/01/20 11:39:26;;;;;;;23.77;12.75;;;2.10;99.90;;;;;;4954585;29;20030;-77
2024/01/20 11:42:04;;;;;;;19.63;11.48;;;2.10;99.90;;;;;;4955005;29;20023;-75
2024/01/20 11:44:31;;;;;;;21.50;12.10;;;2.10;99.90;;;;;;4954730;29;20142;-79
2024/01/20 11:47:02;;;;;;;25.13;13.98;;;2.10;99.90;;;;;;4946607;29;20811;-74
2024/01/20 11:49:28;;;;;;;23.75;12.98;;;2.30;99.90;;;;;;4932776;29;20059;-74
2024/01/20 11:51:54;;;;;;;19.55;11.98;;;2.30;99.90;;;;;;4945007;28;20039;-74
2024/01/20 11:54:24;;;;;;;22.75;12.30;;;2.20;99.90;;;;;;4951127;29;20027;-74
2024/01/20 11:56:57;;;;;;;22.60;11.18;;;2.20;99.90;;;;;;4951933;28;20022;-74
2024/01/20 11:59:23;;;;;;;27.55;16.42;;;2.10;99.90;;;;;;4955229;28;20038;-74
2024/01/20 12:01:48;;;;;;;20.40;12.43;;;2.20;99.90;;;;;;4951891;29;20035;-73
2024/01/20 12:04:17;;;;;;;24.83;14.65;;;2.20;99.90;;;;;;4950743;29;20023;-76
2024/01/20 12:06:42;;;;;;;26.08;15.35;;;2.20;99.90;;;;;;4948830;29;20114;-76
2024/01/20 12:09:10;;;;;;;30.23;16.67;;;2.40;99.90;;;;;;4950015;29;20158;-74
2024/01/20 12:11:36;;;;;;;23.08;12.73;;;2.40;99.90;;;;;;4941253;29;20806;-79
2024/01/20 12:14:02;;;;;;;23.92;12.55;;;2.40;99.90;;;;;;4944978;29;20174;-74
2024/01/20 12:16:28;;;;;;;20.88;11.50;;;2.40;99.90;;;;;;4939705;29;20245;-74
2024/01/20 12:18:54;;;;;;;18.90;9.45;;;2.50;99.90;;;;;;4935090;29;20132;-78
2024/01/20 12:21:21;;;;;;;24.77;12.70;;;2.50;99.90;;;;;;4937780;29;20044;-75
2024/01/20 12:23:53;;;;;;;31.00;16.60;;;2.50;99.90;;;;;;4943081;29;20023;-74
2024/01/20 12:26:19;;;;;;;16.77;9.67;;;2.50;99.90;;;;;;4949444;29;20035;-73
2024/01/20 12:28:50;;;;;;;19.63;10.32;;;2.40;99.90;;;;;;4944939;29;20281;-74
2024/01/20 12:31:16;;;;;;;27.35;14.43;;;2.30;99.90;;;;;;4968576;28;20106;-76
2024/01/20 12:33:47;;;;;;;26.85;14.85;;;2.30;99.90;;;;;;4952060;28;20110;-73
2024/01/20 12:36:18;;;;;;;25.25;13.98;;;2.50;99.90;;;;;;4943994;29;20043;-75
2024/01/20 12:38:45;;;;;;;22.73;13.23;;;2.50;99.90;;;;;;4954146;28;20102;-76
2024/01/20 12:41:12;;;;;;;20.73;10.15;;;2.40;99.90;;;;;;4953742;28;20475;-77
2024/01/20 12:43:39;;;;;;;18.30;9.43;;;2.30;99.90;;;;;;4954296;28;20031;-78